sim
Sign-in with your pilot id or email,
or register
Callsign
Passwort

Schedule Details

Flight Number: OEC87694
Departure: Stuttgart Airport (EDDS) at 12:00 UTC
Arrival: Fuerteventura Airport (GCFV) at 15:56 UTC

Weather Information
Getting current METAR information for EDDS 182020Z VRB02KT CAVOK 13/02 Q1023
Getting current METAR information for GCFV 182000Z 36016KT 9999 FEW045 18/11 Q1019

Schedule Frequency

Route Map